ESSL

Linköping City Airport

Linköping, Sweden
METAR ESSL 180220Z AUTO 19006KT 170V240 9999 NCD M05/M05 Q1017
Observed Flight Rules
Dec-18 @ 02:20 UTC (40 minutes ago) Visual Flight Rules
Wind Visibility Clouds
190° at 6 knots 10,000+ meters
  • Clear skies
Temperatures Readings
Current -5°C / 23°F
Dewpoint -5°C / 23°F
Humidity 100%
Altimeter 30.03" Hg
Pressure 1017 hPa
Elevation 52
METAR ESSL 180220Z AUTO 19006KT 170V240 9999 NCD M05/M05 Q1017
Observed Flight Rules
Dec-18 @ 02:20 UTC
(40 minutes ago)
VFR
Wind Visibility
190° at 6 knots 10,000+ meters
Clouds
  • Clear skies
Temperature Dewpoint
-5°C / 23°F -5°C / 23°F
Humidity Altimeter Pressure
100% 30.03" Hg 1017 hPa